Lake Tapps, Washington
Current Conditions -  °F | °C
As of 4:58 AM on Wednesday 26 Nov 2014 (Local Time) from KTCM Reporting Station
Scattered Clouds Scattered Clouds  
Wind Chill: 52°   Ceiling: Unl
Heat Index: 52°   Visibility: 10mi
Dew Point: 51°   Wind: 6mph
Humidity: 99%   Direction: 170°S
Pressure: 30.17"   Gusts: NA
Location:  47.1874°N, 122.164°W
Report Text: KTCM 261258Z AUTO 17005KT 10SM SCT060 11/11 A3017 RMK AO2 SLP221 T01090107 $
Loading
Personal Weather Stations






























Interactive Weather Map New forecast layout! Learn more

10-Day Weather Forecast

Advertisements
Track Severe Weather on mobile